Nearby METAR Reports


RPLC - Angeles/Pampanga, Philippines
Distance from station: S 166km
Updated: Sun, 07-Mar-2021 10:00am PST
Mostly cloudy
Mostly cloudy
 Wind from ENE
Wind: ENE 7 km/h
Temperature: 30°C
Heat Index: 33°C
Dew Point: 21°C
Humidity: 59%
Barometer: 1016 hPa
Clouds: Mostly cloudy
Visibility: 8 km
Cloud details: Few Clouds 610 m
Mostly cloudy 9144 m
2021/03/07 02:00 RPLC 070200Z 07004KT 8000 FEW020 BKN300 30/21 Q1016 NOSIG RMK A3000
RPLI - Laoag Intl Airport, Philippines
Distance from station: N 171km
Updated: Sun, 07-Mar-2021 10:00am PST
Few Clouds
Few Clouds
 Wind from varies
Wind: varies 4 km/h
Temperature: 30°C
Heat Index: 33°C
Dew Point: 22°C
Humidity: 62%
Barometer: 1015 hPa
Clouds: Few Clouds
Visibility: 10 km
Cloud details: Few Clouds 549 m
2021/03/07 02:00 RPLI 070200Z VRB02KT 9999 FEW018 30/22 Q1015 NOSIG RMK A2997
 
RPLB - Olongapo/Subic, Philippines
Distance from station: S 205km
Updated: Sun, 07-Mar-2021 10:00am PST
Few Clouds
Few Clouds
 Wind from ENE
Wind: ENE 13 km/h
Temperature: 29°C
Heat Index: 31°C
Dew Point: 20°C
Humidity: 58%
Barometer: 1016 hPa
Clouds: Few Clouds
Visibility: 10 km
Cloud details: Few Clouds 610 m
2021/03/07 02:00 RPLB 070200Z 07007KT 020V110 9999 FEW020 29/20 Q1016 NOSIG RMK A3000
RPLL - Ninoy Aquino Intl Airport, Philippines
Distance from station: SSE 247km
Updated: Sun, 07-Mar-2021 10:00am PST
Few Clouds
Few Clouds
 Wind from ESE
Wind: ESE 13 km/h
Temperature: 30°C
Heat Index: 33°C
Dew Point: 22°C
Humidity: 62%
Barometer: 1015 hPa
Clouds: Few Clouds
Visibility: 10 km
Cloud details: Few Clouds 762 m
2021/03/07 02:00 RPLL 070200Z 12007KT 080V180 9999 FEW025 30/22 Q1015 NOSIG RMK A2997